Thamesteel1 — V7OI7 — position and weather

sailwx.info

Track history (hours):
 
Tides and Currents Weather Stations Pressure Air Temp Water Temp Dewpoint Dewpoint Depression Visibility Wind Speed Wind Dir Waves Ship Positions

Thamesteel1

Last reported at 2016-Aug-26 09:34 UTC. Time now 2016-Aug-26 10:11 UTC.
Position S 01°30' W 048°44'.

Length 89 m; draft 4.8 m.

Type: Cargo ship. MMSI: 538003096.

Date/timePositionNaut miles runAvg speedWind from/ knotsBaromVisibWave heightAir tempDewpointWater temp
2016-Aug-26 09:34S 01°30' W 048°44'0 0.0
2016-Aug-26 08:32S 01°30' W 048°44'0 0.0
2016-Aug-26 07:34S 01°30' W 048°44'0 0.0
2016-Aug-26 06:31S 01°30' W 048°44'0 0.0
2016-Aug-26 04:31S 01°30' W 048°44'0 0.0
2016-Aug-26 03:31S 01°30' W 048°44'0 0.0
2016-Aug-26 02:31S 01°30' W 048°44'0 0.0
2016-Aug-26 01:31S 01°30' W 048°44'0 0.0
2016-Aug-26 00:31S 01°30' W 048°44'0 0.0
2016-Aug-25 23:34S 01°30' W 048°44'0 0.0
2016-Aug-25 22:31S 01°30' W 048°44'0 0.0
2016-Aug-25 21:31S 01°30' W 048°44'0 0.0
2016-Aug-25 20:31S 01°30' W 048°44'1 1.1
2016-Aug-25 19:33S 01°31' W 048°45'1211.9
2016-Aug-25 18:34S 01°20' W 048°40'1414.2
2016-Aug-25 17:33S 01°08' W 048°32'4 3.6
2016-Aug-25 16:22S 01°05' W 048°29'0 0.2
2016-Aug-25 15:31S 01°05' W 048°29'0 0.0
2016-Aug-25 14:31S 01°05' W 048°29'0 0.0
2016-Aug-25 13:31S 01°05' W 048°29'0 0.0
2016-Aug-25 12:31S 01°05' W 048°29'0 0.0
2016-Aug-25 11:31S 01°05' W 048°29'0 0.1
2016-Aug-25 10:31S 01°05' W 048°29'0 0.1
2016-Aug-25 09:32S 01°05' W 048°29'0 0.1
2016-Aug-25 08:31S 01°05' W 048°29'0 0.0
2016-Aug-25 07:28S 01°05' W 048°29'0 0.0
2016-Aug-25 06:31S 01°05' W 048°29'0 0.0
2016-Aug-25 04:31S 01°05' W 048°29'0 0.0
2016-Aug-25 03:31S 01°05' W 048°29'0 0.3
2016-Aug-25 02:28S 01°05' W 048°29'0 0.0
2016-Aug-25 01:31S 01°05' W 048°29'0 0.0
2016-Aug-25 00:33S 01°05' W 048°29'0 0.0
2016-Aug-24 23:31S 01°05' W 048°29'0 0.1
2016-Aug-24 22:28S 01°05' W 048°29'2 2.1
2016-Aug-24 21:34S 01°03' W 048°28'8 8.3
2016-Aug-24 20:33S 00°55' W 048°27'9 9.3
2016-Aug-24 19:33S 00°46' W 048°27'1212.2
2016-Aug-24 18:33S 00°35' W 048°21'2410.9
2016-Aug-24 16:19S 00°19' W 048°02'912.0
2016-Aug-24 15:33S 00°15' W 047°54'11213.8
2016-Aug-24 07:24N 01°06' W 046°36'1314.1
2016-Aug-24 06:27N 01°16' W 046°27'  
Track history (hours):
 
Tides and Currents Weather Stations Pressure Air Temp Water Temp Dewpoint Dewpoint Depression Visibility Wind Speed Wind Dir Waves Ship Positions

Thamesteel1

Last reported at 2016-Aug-26 09:34 UTC. Time now 2016-Aug-26 10:11 UTC.
Position S 01°30' W 048°44'.

Length 89 m; draft 4.8 m.

Type: Cargo ship. MMSI: 538003096.

Date/timePositionNaut miles runAvg speedWind from/ knotsBaromVisibWave heightAir tempDewpointWater temp
2016-Aug-26 09:34S 01°30' W 048°44'0 0.0
2016-Aug-26 08:32S 01°30' W 048°44'0 0.0
2016-Aug-26 07:34S 01°30' W 048°44'0 0.0
2016-Aug-26 06:31S 01°30' W 048°44'0 0.0
2016-Aug-26 04:31S 01°30' W 048°44'0 0.0
2016-Aug-26 03:31S 01°30' W 048°44'0 0.0
2016-Aug-26 02:31S 01°30' W 048°44'0 0.0
2016-Aug-26 01:31S 01°30' W 048°44'0 0.0
2016-Aug-26 00:31S 01°30' W 048°44'0 0.0
2016-Aug-25 23:34S 01°30' W 048°44'0 0.0
2016-Aug-25 22:31S 01°30' W 048°44'0 0.0
2016-Aug-25 21:31S 01°30' W 048°44'0 0.0
2016-Aug-25 20:31S 01°30' W 048°44'1 1.1
2016-Aug-25 19:33S 01°31' W 048°45'1211.9
2016-Aug-25 18:34S 01°20' W 048°40'1414.2
2016-Aug-25 17:33S 01°08' W 048°32'4 3.6
2016-Aug-25 16:22S 01°05' W 048°29'0 0.2
2016-Aug-25 15:31S 01°05' W 048°29'0 0.0
2016-Aug-25 14:31S 01°05' W 048°29'0 0.0
2016-Aug-25 13:31S 01°05' W 048°29'0 0.0
2016-Aug-25 12:31S 01°05' W 048°29'0 0.0
2016-Aug-25 11:31S 01°05' W 048°29'0 0.1
2016-Aug-25 10:31S 01°05' W 048°29'0 0.1
2016-Aug-25 09:32S 01°05' W 048°29'0 0.1
2016-Aug-25 08:31S 01°05' W 048°29'0 0.0
2016-Aug-25 07:28S 01°05' W 048°29'0 0.0
2016-Aug-25 06:31S 01°05' W 048°29'0 0.0
2016-Aug-25 04:31S 01°05' W 048°29'0 0.0
2016-Aug-25 03:31S 01°05' W 048°29'0 0.3
2016-Aug-25 02:28S 01°05' W 048°29'0 0.0
2016-Aug-25 01:31S 01°05' W 048°29'0 0.0
2016-Aug-25 00:33S 01°05' W 048°29'0 0.0
2016-Aug-24 23:31S 01°05' W 048°29'0 0.1
2016-Aug-24 22:28S 01°05' W 048°29'2 2.1
2016-Aug-24 21:34S 01°03' W 048°28'8 8.3
2016-Aug-24 20:33S 00°55' W 048°27'9 9.3
2016-Aug-24 19:33S 00°46' W 048°27'1212.2
2016-Aug-24 18:33S 00°35' W 048°21'2410.9
2016-Aug-24 16:19S 00°19' W 048°02'912.0
2016-Aug-24 15:33S 00°15' W 047°54'11213.8
2016-Aug-24 07:24N 01°06' W 046°36'1314.1
2016-Aug-24 06:27N 01°16' W 046°27'  

Dump ship's entire track history